sensor_id;sensor_type;location;lat;lon;timestamp;pressure;altitude;pressure_sealevel;temperature;humidity
8398;BME280;4236;54.504;9.588;2022-11-30T00:01:09;102342.75;;;4.72;100.00
8398;BME280;4236;54.504;9.588;2022-11-30T00:03:37;102350.69;;;4.72;100.00
8398;BME280;4236;54.504;9.588;2022-11-30T00:06:05;102349.88;;;4.72;100.00
8398;BME280;4236;54.504;9.588;2022-11-30T00:08:33;102356.81;;;4.73;100.00
8398;BME280;4236;54.504;9.588;2022-11-30T00:11:06;102348.91;;;4.73;100.00
8398;BME280;4236;54.504;9.588;2022-11-30T00:13:35;102356.97;;;4.71;100.00
8398;BME280;4236;54.504;9.588;2022-11-30T00:16:03;102356.97;;;4.71;100.00
8398;BME280;4236;54.504;9.588;2022-11-30T00:18:32;102359.47;;;4.73;100.00
8398;BME280;4236;54.504;9.588;2022-11-30T00:21:00;102353.22;;;4.74;100.00
8398;BME280;4236;54.504;9.588;2022-11-30T00:23:31;102352.38;;;4.73;100.00
8398;BME280;4236;54.504;9.588;2022-11-30T00:26:00;102350.44;;;4.75;100.00
8398;BME280;4236;54.504;9.588;2022-11-30T00:28:29;102352.28;;;4.75;100.00
8398;BME280;4236;54.504;9.588;2022-11-30T00:30:58;102341.56;;;4.76;100.00
8398;BME280;4236;54.504;9.588;2022-11-30T00:33:26;102352.16;;;4.76;100.00
8398;BME280;4236;54.504;9.588;2022-11-30T00:35:56;102357.44;;;4.76;100.00
8398;BME280;4236;54.504;9.588;2022-11-30T00:38:24;102356.72;;;4.74;100.00
8398;BME280;4236;54.504;9.588;2022-11-30T00:40:52;102352.38;;;4.73;100.00
8398;BME280;4236;54.504;9.588;2022-11-30T00:43:19;102347.81;;;4.75;100.00
8398;BME280;4236;54.504;9.588;2022-11-30T00:45:47;102348.78;;;4.74;100.00
8398;BME280;4236;54.504;9.588;2022-11-30T00:48:14;102355.88;;;4.74;100.00
8398;BME280;4236;54.504;9.588;2022-11-30T00:50:42;102353.22;;;4.74;100.00
8398;BME280;4236;54.504;9.588;2022-11-30T00:53:11;102356.09;;;4.71;100.00
8398;BME280;4236;54.504;9.588;2022-11-30T00:55:39;102357.66;;;4.73;100.00
8398;BME280;4236;54.504;9.588;2022-11-30T00:58:06;102351.53;;;4.73;100.00
8398;BME280;4236;54.504;9.588;2022-11-30T01:00:34;102355.97;;;4.72;100.00
8398;BME280;4236;54.504;9.588;2022-11-30T01:03:02;102358.75;;;4.71;100.00
8398;BME280;4236;54.504;9.588;2022-11-30T01:05:31;102358.75;;;4.71;100.00
8398;BME280;4236;54.504;9.588;2022-11-30T01:07:59;102356.22;;;4.69;100.00
8398;BME280;4236;54.504;9.588;2022-11-30T01:10:28;102357.06;;;4.70;100.00
8398;BME280;4236;54.504;9.588;2022-11-30T01:12:56;102363.31;;;4.69;100.00
8398;BME280;4236;54.504;9.588;2022-11-30T01:15:24;102362.59;;;4.67;100.00
8398;BME280;4236;54.504;9.588;2022-11-30T01:17:51;102366.78;;;4.69;100.00
8398;BME280;4236;54.504;9.588;2022-11-30T01:20:19;102363.31;;;4.69;100.00
8398;BME280;4236;54.504;9.588;2022-11-30T01:22:47;102365.13;;;4.68;100.00
8398;BME280;4236;54.504;9.588;2022-11-30T01:25:14;102372.91;;;4.70;100.00
8398;BME280;4236;54.504;9.588;2022-11-30T01:27:47;102377.97;;;4.73;100.00
8398;BME280;4236;54.504;9.588;2022-11-30T01:30:15;102382.28;;;4.74;100.00
8398;BME280;4236;54.504;9.588;2022-11-30T01:32:43;102381.34;;;4.75;100.00
8398;BME280;4236;54.504;9.588;2022-11-30T01:35:10;102380.38;;;4.76;100.00
8398;BME280;4236;54.504;9.588;2022-11-30T01:37:38;102381.13;;;4.78;100.00
8398;BME280;4236;54.504;9.588;2022-11-30T01:40:07;102383.63;;;4.79;100.00
8398;BME280;4236;54.504;9.588;2022-11-30T01:42:34;102386.25;;;4.79;100.00
8398;BME280;4236;54.504;9.588;2022-11-30T01:45:10;102383.63;;;4.79;100.00
8398;BME280;4236;54.504;9.588;2022-11-30T01:47:41;102386.25;;;4.79;100.00
8398;BME280;4236;54.504;9.588;2022-11-30T01:50:12;102383.63;;;4.79;100.00
8398;BME280;4236;54.504;9.588;2022-11-30T01:52:43;102384.34;;;4.81;100.00
8398;BME280;4236;54.504;9.588;2022-11-30T01:55:16;102383.25;;;4.84;100.00
8398;BME280;4236;54.504;9.588;2022-11-30T01:57:48;102381.44;;;4.84;100.00
8398;BME280;4236;54.504;9.588;2022-11-30T02:00:18;102387.59;;;4.85;100.00
8398;BME280;4236;54.504;9.588;2022-11-30T02:02:54;102381.34;;;4.86;100.00
8398;BME280;4236;54.504;9.588;2022-11-30T02:05:24;102375.06;;;4.87;100.00
8398;BME280;4236;54.504;9.588;2022-11-30T02:07:52;102385.53;;;4.88;100.00
8398;BME280;4236;54.504;9.588;2022-11-30T02:10:24;102381.97;;;4.89;100.00
8398;BME280;4236;54.504;9.588;2022-11-30T02:13:16;102390.47;;;4.93;100.00
8398;BME280;4236;54.504;9.588;2022-11-30T02:15:57;102389.41;;;4.95;100.00
8398;BME280;4236;54.504;9.588;2022-11-30T02:18:31;102387.72;;;4.94;100.00
8398;BME280;4236;54.504;9.588;2022-11-30T02:21:07;102397.09;;;4.98;100.00
8398;BME280;4236;54.504;9.588;2022-11-30T02:23:53;102395.16;;;5.00;100.00
8398;BME280;4236;54.504;9.588;2022-11-30T02:26:38;102403.94;;;5.01;100.00
8398;BME280;4236;54.504;9.588;2022-11-30T02:29:15;102399.50;;;5.01;100.00
8398;BME280;4236;54.504;9.588;2022-11-30T02:31:52;102393.13;;;5.04;100.00
8398;BME280;4236;54.504;9.588;2022-11-30T02:34:24;102397.56;;;5.03;100.00
8398;BME280;4236;54.504;9.588;2022-11-30T02:36:54;102393.13;;;5.04;100.00
8398;BME280;4236;54.504;9.588;2022-11-30T02:39:22;102396.84;;;5.01;100.00
8398;BME280;4236;54.504;9.588;2022-11-30T02:41:50;102393.22;;;5.02;100.00
8398;BME280;4236;54.504;9.588;2022-11-30T02:44:20;102393.47;;;4.99;100.00
8398;BME280;4236;54.504;9.588;2022-11-30T02:46:57;102389.97;;;4.99;100.00
8398;BME280;4236;54.504;9.588;2022-11-30T02:49:32;102395.25;;;4.99;100.00
8398;BME280;4236;54.504;9.588;2022-11-30T02:52:04;102387.47;;;4.97;100.00
8398;BME280;4236;54.504;9.588;2022-11-30T02:54:33;102385.69;;;4.98;100.00
8398;BME280;4236;54.504;9.588;2022-11-30T02:57:01;102386.63;;;4.97;100.00
8398;BME280;4236;54.504;9.588;2022-11-30T02:59:30;102386.53;;;4.98;100.00
8398;BME280;4236;54.504;9.588;2022-11-30T03:01:58;102389.97;;;4.99;100.00
8398;BME280;4236;54.504;9.588;2022-11-30T03:04:25;102389.16;;;4.98;100.00
8398;BME280;4236;54.504;9.588;2022-11-30T03:06:53;102394.44;;;4.98;100.00
8398;BME280;4236;54.504;9.588;2022-11-30T03:09:21;102382.41;;;4.94;100.00
8398;BME280;4236;54.504;9.588;2022-11-30T03:11:48;102384.94;;;4.96;100.00
8398;BME280;4236;54.504;9.588;2022-11-30T03:14:16;102382.28;;;4.96;100.00
8398;BME280;4236;54.504;9.588;2022-11-30T03:16:45;102390.22;;;4.96;100.00
8398;BME280;4236;54.504;9.588;2022-11-30T03:19:13;102383.50;;;4.92;100.00
8398;BME280;4236;54.504;9.588;2022-11-30T03:21:40;102381.72;;;4.92;100.00
8398;BME280;4236;54.504;9.588;2022-11-30T03:24:08;102383.63;;;4.90;100.00
8398;BME280;4236;54.504;9.588;2022-11-30T03:26:36;102376.44;;;4.92;100.00
8398;BME280;4236;54.504;9.588;2022-11-30T03:29:03;102382.53;;;4.93;100.00
8398;BME280;4236;54.504;9.588;2022-11-30T03:31:31;102380.97;;;4.90;100.00
8398;BME280;4236;54.504;9.588;2022-11-30T03:34:00;102391.69;;;4.89;100.00
8398;BME280;4236;54.504;9.588;2022-11-30T03:36:28;102387.25;;;4.89;100.00
8398;BME280;4236;54.504;9.588;2022-11-30T03:38:55;102394.44;;;4.87;100.00
8398;BME280;4236;54.504;9.588;2022-11-30T03:41:23;102393.72;;;4.85;100.00
8398;BME280;4236;54.504;9.588;2022-11-30T03:43:50;102400.47;;;4.89;100.00
8398;BME280;4236;54.504;9.588;2022-11-30T03:46:18;102399.72;;;4.87;100.00
8398;BME280;4236;54.504;9.588;2022-11-30T03:48:46;102407.66;;;4.87;100.00
8398;BME280;4236;54.504;9.588;2022-11-30T03:51:15;102399.59;;;4.89;100.00
8398;BME280;4236;54.504;9.588;2022-11-30T03:53:42;102404.16;;;4.87;100.00
8398;BME280;4236;54.504;9.588;2022-11-30T03:56:11;102395.50;;;4.85;100.00
8398;BME280;4236;54.504;9.588;2022-11-30T03:58:39;102397.53;;;4.81;100.00
8398;BME280;4236;54.504;9.588;2022-11-30T04:01:09;102401.75;;;4.84;100.00
8398;BME280;4236;54.504;9.588;2022-11-30T04:03:38;102400.69;;;4.86;100.00
8398;BME280;4236;54.504;9.588;2022-11-30T04:06:07;102409.09;;;4.91;100.00
8398;BME280;4236;54.504;9.588;2022-11-30T04:08:36;102405.75;;;4.89;100.00
8398;BME280;4236;54.504;9.588;2022-11-30T04:11:04;102408.50;;;4.88;100.00
8398;BME280;4236;54.504;9.588;2022-11-30T04:13:33;102404.75;;;4.90;100.00
8398;BME280;4236;54.504;9.588;2022-11-30T04:16:01;102405.50;;;4.92;100.00
8398;BME280;4236;54.504;9.588;2022-11-30T04:18:31;102409.81;;;4.93;100.00
8398;BME280;4236;54.504;9.588;2022-11-30T04:21:00;102411.59;;;4.93;100.00
8398;BME280;4236;54.504;9.588;2022-11-30T04:23:29;102408.88;;;4.94;100.00
8398;BME280;4236;54.504;9.588;2022-11-30T04:26:00;102423.78;;;4.95;100.00
8398;BME280;4236;54.504;9.588;2022-11-30T04:28:28;102424.00;;;4.92;100.00
8398;BME280;4236;54.504;9.588;2022-11-30T04:30:56;102429.06;;;4.95;100.00
8398;BME280;4236;54.504;9.588;2022-11-30T04:33:26;102428.06;;;4.96;100.00
8398;BME280;4236;54.504;9.588;2022-11-30T04:35:55;102419.44;;;4.94;100.00
8398;BME280;4236;54.504;9.588;2022-11-30T04:38:24;102421.94;;;4.96;100.00
8398;BME280;4236;54.504;9.588;2022-11-30T04:40:52;102426.19;;;4.98;100.00
8398;BME280;4236;54.504;9.588;2022-11-30T04:43:22;102418.25;;;4.98;100.00
8398;BME280;4236;54.504;9.588;2022-11-30T04:45:50;102417.50;;;4.96;100.00
8398;BME280;4236;54.504;9.588;2022-11-30T04:48:18;102426.19;;;4.98;100.00
8398;BME280;4236;54.504;9.588;2022-11-30T04:50:45;102421.84;;;4.97;100.00
8398;BME280;4236;54.504;9.588;2022-11-30T04:53:13;102427.00;;;4.99;100.00
8398;BME280;4236;54.504;9.588;2022-11-30T04:55:41;102429.53;;;5.00;100.00
8398;BME280;4236;54.504;9.588;2022-11-30T04:58:08;102433.97;;;5.00;100.00
8398;BME280;4236;54.504;9.588;2022-11-30T05:00:37;102426.88;;;5.00;100.00
8398;BME280;4236;54.504;9.588;2022-11-30T05:03:05;102432.78;;;5.04;100.00
8398;BME280;4236;54.504;9.588;2022-11-30T05:05:32;102439.03;;;5.03;100.00
8398;BME280;4236;54.504;9.588;2022-11-30T05:08:00;102432.03;;;5.02;100.00
8398;BME280;4236;54.504;9.588;2022-11-30T05:10:28;102442.63;;;5.02;100.00
8398;BME280;4236;54.504;9.588;2022-11-30T05:12:58;102443.47;;;5.02;100.00
8398;BME280;4236;54.504;9.588;2022-11-30T05:15:26;102434.59;;;5.03;100.00
8398;BME280;4236;54.504;9.588;2022-11-30T05:17:58;102444.22;;;5.05;100.00
8398;BME280;4236;54.504;9.588;2022-11-30T05:20:26;102447.81;;;5.03;100.00
8398;BME280;4236;54.504;9.588;2022-11-30T05:22:54;102443.38;;;5.04;100.00
8398;BME280;4236;54.504;9.588;2022-11-30T05:25:21;102452.97;;;5.05;100.00
8398;BME280;4236;54.504;9.588;2022-11-30T05:27:49;102446.63;;;5.08;100.00
8398;BME280;4236;54.504;9.588;2022-11-30T05:30:17;102444.91;;;5.07;100.00
8398;BME280;4236;54.504;9.588;2022-11-30T05:32:44;102455.50;;;5.07;100.00
8398;BME280;4236;54.504;9.588;2022-11-30T05:35:13;102460.66;;;5.08;100.00
8398;BME280;4236;54.504;9.588;2022-11-30T05:37:41;102458.84;;;5.09;100.00
8398;BME280;4236;54.504;9.588;2022-11-30T05:40:09;102459.00;;;5.07;100.00
8398;BME280;4236;54.504;9.588;2022-11-30T05:42:37;102462.47;;;5.08;100.00
8398;BME280;4236;54.504;9.588;2022-11-30T05:45:05;102467.53;;;5.11;100.00
8398;BME280;4236;54.504;9.588;2022-11-30T05:47:33;102468.34;;;5.11;100.00
8398;BME280;4236;54.504;9.588;2022-11-30T05:50:00;102472.69;;;5.12;100.00
8398;BME280;4236;54.504;9.588;2022-11-30T05:52:29;102469.94;;;5.14;100.00
8398;BME280;4236;54.504;9.588;2022-11-30T05:54:57;102466.44;;;5.13;100.00
8398;BME280;4236;54.504;9.588;2022-11-30T05:57:25;102468.34;;;5.11;100.00
8398;BME280;4236;54.504;9.588;2022-11-30T05:59:53;102462.97;;;5.13;100.00
8398;BME280;4236;54.504;9.588;2022-11-30T06:02:20;102465.47;;;5.14;100.00
8398;BME280;4236;54.504;9.588;2022-11-30T06:04:53;102466.44;;;5.13;100.00
8398;BME280;4236;54.504;9.588;2022-11-30T06:07:21;102473.53;;;5.13;100.00
8398;BME280;4236;54.504;9.588;2022-11-30T06:09:50;102472.59;;;5.14;100.00
8398;BME280;4236;54.504;9.588;2022-11-30T06:12:17;102476.88;;;5.15;100.00
8398;BME280;4236;54.504;9.588;2022-11-30T06:14:45;102474.25;;;5.15;100.00
8398;BME280;4236;54.504;9.588;2022-11-30T06:17:13;102484.59;;;5.18;100.00
8398;BME280;4236;54.504;9.588;2022-11-30T06:19:41;102480.28;;;5.17;100.00
8398;BME280;4236;54.504;9.588;2022-11-30T06:22:08;102482.78;;;5.18;100.00
8398;BME280;4236;54.504;9.588;2022-11-30T06:24:36;102490.00;;;5.16;100.00
8398;BME280;4236;54.504;9.588;2022-11-30T06:27:05;102497.81;;;5.18;100.00
8398;BME280;4236;54.504;9.588;2022-11-30T06:29:32;102489.16;;;5.16;100.00
8398;BME280;4236;54.504;9.588;2022-11-30T06:32:00;102492.66;;;5.16;100.00
8398;BME280;4236;54.504;9.588;2022-11-30T06:34:29;102496.84;;;5.19;100.00
8398;BME280;4236;54.504;9.588;2022-11-30T06:36:57;102494.31;;;5.17;100.00
8398;BME280;4236;54.504;9.588;2022-11-30T06:39:24;102498.78;;;5.17;100.00
8398;BME280;4236;54.504;9.588;2022-11-30T06:42:13;102505.75;;;5.18;100.00
8398;BME280;4236;54.504;9.588;2022-11-30T06:44:41;102508.38;;;5.18;100.00
8398;BME280;4236;54.504;9.588;2022-11-30T06:47:08;102501.31;;;5.18;100.00
8398;BME280;4236;54.504;9.588;2022-11-30T06:49:36;102498.78;;;5.17;100.00
8398;BME280;4236;54.504;9.588;2022-11-30T06:52:04;102500.44;;;5.18;100.00
8398;BME280;4236;54.504;9.588;2022-11-30T06:54:32;102502.25;;;5.17;100.00
8398;BME280;4236;54.504;9.588;2022-11-30T06:56:59;102504.78;;;5.19;100.00
8398;BME280;4236;54.504;9.588;2022-11-30T06:59:28;102507.44;;;5.19;100.00
8398;BME280;4236;54.504;9.588;2022-11-30T07:01:56;102511.88;;;5.18;100.00
8398;BME280;4236;54.504;9.588;2022-11-30T07:04:32;102514.53;;;5.18;100.00
8398;BME280;4236;54.504;9.588;2022-11-30T07:07:00;102517.16;;;5.18;100.00
8398;BME280;4236;54.504;9.588;2022-11-30T07:09:28;102514.53;;;5.18;100.00
8398;BME280;4236;54.504;9.588;2022-11-30T07:11:55;102516.31;;;5.18;100.00
8398;BME280;4236;54.504;9.588;2022-11-30T07:14:23;102517.31;;;5.17;100.00
8398;BME280;4236;54.504;9.588;2022-11-30T07:16:52;102522.59;;;5.17;100.00
8398;BME280;4236;54.504;9.588;2022-11-30T07:19:20;102519.94;;;5.17;100.00
8398;BME280;4236;54.504;9.588;2022-11-30T07:21:47;102516.56;;;5.15;100.00
8398;BME280;4236;54.504;9.588;2022-11-30T07:24:15;102513.06;;;5.14;100.00
8398;BME280;4236;54.504;9.588;2022-11-30T07:27:01;102514.16;;;5.12;100.00
8398;BME280;4236;54.504;9.588;2022-11-30T07:29:29;102518.59;;;5.11;100.00
8398;BME280;4236;54.504;9.588;2022-11-30T07:31:58;102528.47;;;5.09;100.00
8398;BME280;4236;54.504;9.588;2022-11-30T07:34:26;102528.34;;;5.11;100.00
8398;BME280;4236;54.504;9.588;2022-11-30T07:36:54;102524.72;;;5.12;100.00
8398;BME280;4236;54.504;9.588;2022-11-30T07:39:21;102527.97;;;5.15;100.00
8398;BME280;4236;54.504;9.588;2022-11-30T07:41:49;102533.03;;;5.18;100.00
8398;BME280;4236;54.504;9.588;2022-11-30T07:44:17;102531.34;;;5.17;100.00
8398;BME280;4236;54.504;9.588;2022-11-30T07:46:44;102534.84;;;5.18;100.00
8398;BME280;4236;54.504;9.588;2022-11-30T07:49:13;102526.66;;;5.21;100.00
8398;BME280;4236;54.504;9.588;2022-11-30T07:51:41;102530.16;;;5.21;100.00
8398;BME280;4236;54.504;9.588;2022-11-30T07:54:08;102530.03;;;5.23;100.00
8398;BME280;4236;54.504;9.588;2022-11-30T07:56:36;102529.06;;;5.24;100.00
8398;BME280;4236;54.504;9.588;2022-11-30T07:59:04;102524.50;;;5.26;100.00
8398;BME280;4236;54.504;9.588;2022-11-30T08:01:32;102534.13;;;5.27;100.00
8398;BME280;4236;54.504;9.588;2022-11-30T08:04:00;102537.47;;;5.29;100.00
8398;BME280;4236;54.504;9.588;2022-11-30T08:06:30;102539.41;;;5.27;100.00
8398;BME280;4236;54.504;9.588;2022-11-30T08:08:59;102539.19;;;5.30;100.00
8398;BME280;4236;54.504;9.588;2022-11-30T08:11:28;102545.19;;;5.32;100.00
8398;BME280;4236;54.504;9.588;2022-11-30T08:13:56;102549.03;;;5.28;100.00
8398;BME280;4236;54.504;9.588;2022-11-30T08:16:26;102540.75;;;5.32;100.00
8398;BME280;4236;54.504;9.588;2022-11-30T08:18:54;102545.19;;;5.32;100.00
8398;BME280;4236;54.504;9.588;2022-11-30T08:21:22;102545.94;;;5.34;100.00
8398;BME280;4236;54.504;9.588;2022-11-30T08:23:53;102543.28;;;5.34;100.00
8398;BME280;4236;54.504;9.588;2022-11-30T08:26:23;102551.09;;;5.35;100.00
8398;BME280;4236;54.504;9.588;2022-11-30T08:28:53;102558.06;;;5.36;100.00
8398;BME280;4236;54.504;9.588;2022-11-30T08:31:22;102563.00;;;5.41;100.00
8398;BME280;4236;54.504;9.588;2022-11-30T08:33:54;102564.69;;;5.42;100.00
8398;BME280;4236;54.504;9.588;2022-11-30T08:36:23;102565.31;;;5.45;100.00
8398;BME280;4236;54.504;9.588;2022-11-30T08:38:52;102573.25;;;5.45;100.00
8398;BME280;4236;54.504;9.588;2022-11-30T08:41:21;102573.47;;;5.42;100.00
8398;BME280;4236;54.504;9.588;2022-11-30T08:43:49;102576.97;;;5.43;100.00
8398;BME280;4236;54.504;9.588;2022-11-30T08:46:19;102577.91;;;5.42;100.00
8398;BME280;4236;54.504;9.588;2022-11-30T08:49:07;102584.06;;;5.42;100.00
8398;BME280;4236;54.504;9.588;2022-11-30T08:51:52;102586.00;;;5.40;100.00
8398;BME280;4236;54.504;9.588;2022-11-30T08:54:42;102582.25;;;5.43;100.00
8398;BME280;4236;54.504;9.588;2022-11-30T08:57:30;102589.72;;;5.49;100.00
8398;BME280;4236;54.504;9.588;2022-11-30T08:59:58;102590.66;;;5.48;100.00
8398;BME280;4236;54.504;9.588;2022-11-30T09:02:26;102595.88;;;5.49;100.00
8398;BME280;4236;54.504;9.588;2022-11-30T09:04:53;102599.31;;;5.50;100.00
8398;BME280;4236;54.504;9.588;2022-11-30T09:07:21;102605.13;;;5.55;100.00
8398;BME280;4236;54.504;9.588;2022-11-30T09:09:50;102600.31;;;5.60;100.00
8398;BME280;4236;54.504;9.588;2022-11-30T09:12:17;102604.13;;;5.56;100.00
8398;BME280;4236;54.504;9.588;2022-11-30T09:14:46;102608.00;;;5.63;100.00
8398;BME280;4236;54.504;9.588;2022-11-30T09:17:23;102606.31;;;5.62;100.00
8398;BME280;4236;54.504;9.588;2022-11-30T09:19:50;102613.69;;;5.70;100.00
8398;BME280;4236;54.504;9.588;2022-11-30T09:22:18;102613.78;;;5.68;100.00
8398;BME280;4236;54.504;9.588;2022-11-30T09:24:45;102613.44;;;5.73;100.00
8398;BME280;4236;54.504;9.588;2022-11-30T09:27:15;102612.13;;;5.78;100.00
8398;BME280;4236;54.504;9.588;2022-11-30T09:29:42;102611.03;;;5.81;100.00
8398;BME280;4236;54.504;9.588;2022-11-30T09:32:10;102618.66;;;5.85;100.00
8398;BME280;4236;54.504;9.588;2022-11-30T09:34:37;102615.13;;;5.85;100.00
8398;BME280;4236;54.504;9.588;2022-11-30T09:37:05;102615.63;;;5.90;100.00
8398;BME280;4236;54.504;9.588;2022-11-30T09:39:33;102620.94;;;5.90;100.00
8398;BME280;4236;54.504;9.588;2022-11-30T09:42:25;102623.72;;;5.88;100.00
8398;BME280;4236;54.504;9.588;2022-11-30T09:44:59;102621.31;;;5.85;100.00
8398;BME280;4236;54.504;9.588;2022-11-30T09:47:40;102616.00;;;5.85;100.00
8398;BME280;4236;54.504;9.588;2022-11-30T09:50:13;102612.28;;;5.88;100.00
8398;BME280;4236;54.504;9.588;2022-11-30T09:52:43;102618.16;;;5.91;100.00
8398;BME280;4236;54.504;9.588;2022-11-30T09:55:16;102612.84;;;5.91;100.00
8398;BME280;4236;54.504;9.588;2022-11-30T09:57:52;102625.28;;;5.91;100.00
8398;BME280;4236;54.504;9.588;2022-11-30T10:00:22;102616.94;;;5.95;100.00
8398;BME280;4236;54.504;9.588;2022-11-30T10:02:50;102613.09;;;5.99;100.00
8398;BME280;4236;54.504;9.588;2022-11-30T10:05:21;102613.22;;;5.98;100.00
8398;BME280;4236;54.504;9.588;2022-11-30T10:08:10;102615.25;;;5.94;100.00
8398;BME280;4236;54.504;9.588;2022-11-30T10:10:47;102607.19;;;5.85;100.00
8398;BME280;4236;54.504;9.588;2022-11-30T10:13:30;102611.25;;;5.78;100.00
8398;BME280;4236;54.504;9.588;2022-11-30T10:16:11;102609.47;;;5.78;100.00
8398;BME280;4236;54.504;9.588;2022-11-30T10:18:56;102607.44;;;5.82;100.00
8398;BME280;4236;54.504;9.588;2022-11-30T10:21:39;102607.28;;;5.83;100.00
8398;BME280;4236;54.504;9.588;2022-11-30T10:24:25;102610.19;;;5.80;100.00
8398;BME280;4236;54.504;9.588;2022-11-30T10:26:56;102610.91;;;5.71;100.00
8398;BME280;4236;54.504;9.588;2022-11-30T10:29:30;102610.53;;;5.65;100.00
8398;BME280;4236;54.504;9.588;2022-11-30T10:31:59;102614.72;;;5.56;100.00
8398;BME280;4236;54.504;9.588;2022-11-30T10:34:31;102610.19;;;5.58;100.00
8398;BME280;4236;54.504;9.588;2022-11-30T10:37:03;102600.78;;;5.54;100.00
8398;BME280;4236;54.504;9.588;2022-11-30T10:39:36;102602.59;;;5.53;100.00
8398;BME280;4236;54.504;9.588;2022-11-30T10:42:09;102599.69;;;5.56;100.00
8398;BME280;4236;54.504;9.588;2022-11-30T10:44:42;102602.47;;;5.66;100.00
8398;BME280;4236;54.504;9.588;2022-11-30T10:47:16;102601.16;;;5.72;100.00
8398;BME280;4236;54.504;9.588;2022-11-30T10:49:48;102602.72;;;5.74;100.00
8398;BME280;4236;54.504;9.588;2022-11-30T10:52:20;102596.00;;;5.81;100.00
8398;BME280;4236;54.504;9.588;2022-11-30T10:54:52;102592.88;;;5.87;100.00
8398;BME280;4236;54.504;9.588;2022-11-30T10:57:29;102588.53;;;5.86;100.00
8398;BME280;4236;54.504;9.588;2022-11-30T11:00:02;102593.75;;;5.88;100.00
8398;BME280;4236;54.504;9.588;2022-11-30T11:02:37;102601.78;;;5.86;100.00
8398;BME280;4236;54.504;9.588;2022-11-30T11:05:18;102595.28;;;5.90;100.00
8398;BME280;4236;54.504;9.588;2022-11-30T11:07:57;102596.38;;;5.88;100.00
8398;BME280;4236;54.504;9.588;2022-11-30T11:10:33;102602.25;;;5.91;100.00
8398;BME280;4236;54.504;9.588;2022-11-30T11:13:02;102607.56;;;5.91;100.00
8398;BME280;4236;54.504;9.588;2022-11-30T11:15:33;102597.47;;;5.96;100.00
8398;BME280;4236;54.504;9.588;2022-11-30T11:18:21;102601.91;;;5.96;100.00
8398;BME280;4236;54.504;9.588;2022-11-30T11:20:59;102603.34;;;6.00;100.00
8398;BME280;4236;54.504;9.588;2022-11-30T11:23:34;102600.22;;;5.95;100.00
8398;BME280;4236;54.504;9.588;2022-11-30T11:26:03;102599.38;;;5.94;100.00
8398;BME280;4236;54.504;9.588;2022-11-30T11:28:33;102603.94;;;5.92;100.00
8398;BME280;4236;54.504;9.588;2022-11-30T11:31:15;102602.63;;;5.98;100.00
8398;BME280;4236;54.504;9.588;2022-11-30T11:33:50;102599.97;;;5.98;100.00
8398;BME280;4236;54.504;9.588;2022-11-30T11:36:24;102606.97;;;5.99;100.00
8398;BME280;4236;54.504;9.588;2022-11-30T11:38:52;102608.66;;;6.00;100.00
8398;BME280;4236;54.504;9.588;2022-11-30T11:41:23;102602.38;;;6.01;100.00
8398;BME280;4236;54.504;9.588;2022-11-30T11:43:58;102592.28;;;6.06;100.00
8398;BME280;4236;54.504;9.588;2022-11-30T11:46:29;102592.03;;;6.09;100.00
8398;BME280;4236;54.504;9.588;2022-11-30T11:48:58;102602.50;;;6.10;100.00
8398;BME280;4236;54.504;9.588;2022-11-30T11:51:31;102595.25;;;6.12;100.00
8398;BME280;4236;54.504;9.588;2022-11-30T11:54:03;102601.28;;;6.15;100.00
8398;BME280;4236;54.504;9.588;2022-11-30T11:56:34;102588.91;;;6.15;100.00
8398;BME280;4236;54.504;9.588;2022-11-30T11:59:11;102598.66;;;6.15;100.00
8398;BME280;4236;54.504;9.588;2022-11-30T12:01:47;102599.00;;;6.10;100.00
8398;BME280;4236;54.504;9.588;2022-11-30T12:04:36;102602.72;;;6.07;100.00
8398;BME280;4236;54.504;9.588;2022-11-30T12:07:13;102602.72;;;6.07;100.00
8398;BME280;4236;54.504;9.588;2022-11-30T12:09:54;102609.84;;;6.07;100.00
8398;BME280;4236;54.504;9.588;2022-11-30T12:12:23;102604.91;;;6.02;100.00
8398;BME280;4236;54.504;9.588;2022-11-30T12:14:51;102599.03;;;5.99;100.00
8398;BME280;4236;54.504;9.588;2022-11-30T12:17:33;102608.53;;;6.01;100.00
8398;BME280;4236;54.504;9.588;2022-11-30T12:20:10;102610.47;;;5.99;100.00
8398;BME280;4236;54.504;9.588;2022-11-30T12:22:57;102609.50;;;5.89;100.00
8398;BME280;4236;54.504;9.588;2022-11-30T12:25:33;102615.22;;;5.83;100.00
8398;BME280;4236;54.504;9.588;2022-11-30T12:28:16;102601.28;;;5.81;100.00
8398;BME280;4236;54.504;9.588;2022-11-30T12:30:57;102616.78;;;5.75;100.00
8398;BME280;4236;54.504;9.588;2022-11-30T12:33:41;102620.63;;;5.71;100.00
8398;BME280;4236;54.504;9.588;2022-11-30T12:36:16;102613.53;;;5.71;100.00
8398;BME280;4236;54.504;9.588;2022-11-30T12:38:48;102615.56;;;5.68;100.00
8398;BME280;4236;54.504;9.588;2022-11-30T12:41:37;102620.06;;;5.67;100.00
8398;BME280;4236;54.504;9.588;2022-11-30T12:44:21;102622.47;;;5.70;100.00
8398;BME280;4236;54.504;9.588;2022-11-30T12:46:59;102621.00;;;5.66;100.00
8398;BME280;4236;54.504;9.588;2022-11-30T12:49:45;102621.25;;;5.74;100.00
8398;BME280;4236;54.504;9.588;2022-11-30T12:52:24;102614.88;;;5.77;100.00
8398;BME280;4236;54.504;9.588;2022-11-30T12:55:05;102620.78;;;5.80;100.00
8398;BME280;4236;54.504;9.588;2022-11-30T12:57:37;102614.28;;;5.73;100.00
8398;BME280;4236;54.504;9.588;2022-11-30T13:00:12;102613.44;;;5.73;100.00
8398;BME280;4236;54.504;9.588;2022-11-30T13:03:07;102619.34;;;5.76;100.00
8398;BME280;4236;54.504;9.588;2022-11-30T13:05:46;102629.31;;;5.73;100.00
8398;BME280;4236;54.504;9.588;2022-11-30T13:08:19;102628.09;;;5.66;100.00
8398;BME280;4236;54.504;9.588;2022-11-30T13:10:52;102633.88;;;5.59;100.00
8398;BME280;4236;54.504;9.588;2022-11-30T13:13:24;102629.66;;;5.57;100.00
8398;BME280;4236;54.504;9.588;2022-11-30T13:15:54;102634.47;;;5.52;100.00
8398;BME280;4236;54.504;9.588;2022-11-30T13:18:22;102629.75;;;5.55;100.00
8398;BME280;4236;54.504;9.588;2022-11-30T13:20:54;102640.00;;;5.60;100.00
8398;BME280;4236;54.504;9.588;2022-11-30T13:23:30;102634.72;;;5.60;100.00
8398;BME280;4236;54.504;9.588;2022-11-30T13:26:06;102638.94;;;5.63;100.00
8398;BME280;4236;54.504;9.588;2022-11-30T13:28:49;102638.69;;;5.66;100.00
8398;BME280;4236;54.504;9.588;2022-11-30T13:31:21;102638.06;;;5.62;100.00